Time;durP1;ratioP1;P1;durP2;ratioP2;P2;SDS_P1;SDS_P2;PMS_P1;PMS_P2;Temp;Humidity;BMP_temperature;BMP_pressure;BME280_temperature;BME280_humidity;BME280_pressure;Samples;Min_cycle;Max_cycle;Signal;HPM_P1;HPM_P2
2023/03/10 00:00:07;;;;;;;16.10;7.93;;;;;;;;;;5033705;28;20033;-38
2023/03/10 00:02:33;;;;;;;14.52;7.53;;;;;;;;;;5033439;28;20132;-38
2023/03/10 00:05:00;;;;;;;19.75;7.85;;;;;;;;;;5036087;28;20029;-38
2023/03/10 00:07:25;;;;;;;16.67;7.50;;;;;;;;;;5030660;28;20044;-38
2023/03/10 00:09:51;;;;;;;14.98;6.53;;;;;;;;;;5033039;28;20033;-38
2023/03/10 00:12:16;;;;;;;15.73;6.97;;;;;;;;;;5035217;28;20041;-39
2023/03/10 00:14:42;;;;;;;13.68;6.65;;;;;;;;;;5036241;28;20025;-38
2023/03/10 00:17:10;;;;;;;16.88;8.65;;;;;;;;;;5035254;28;20132;-38
2023/03/10 00:19:35;;;;;;;15.95;6.88;;;;;;;;;;5028182;28;20028;-38
2023/03/10 00:22:04;;;;;;;11.73;5.82;;;;;;;;;;5031816;28;20041;-38
2023/03/10 00:24:29;;;;;;;12.68;6.03;;;;;;;;;;5035398;28;20469;-38
2023/03/10 00:27:03;;;;;;;8.98;5.32;;;;;;;;;;5034091;28;20041;-39
2023/03/10 00:29:29;;;;;;;13.32;6.07;;;;;;;;;;5031228;28;20078;-40
2023/03/10 00:32:04;;;;;;;12.20;5.53;;;;;;;;;;5037944;28;20046;-38
2023/03/10 00:34:35;;;;;;;11.68;6.22;;;;;;;;;;5034299;28;20029;-38
2023/03/10 00:37:01;;;;;;;14.05;6.93;;;;;;;;;;5029212;28;20044;-38
2023/03/10 00:39:26;;;;;;;15.68;7.20;;;;;;;;;;5033979;28;20382;-39
2023/03/10 00:42:00;;;;;;;12.90;6.70;;;;;;;;;;5034119;28;20082;-39
2023/03/10 00:44:27;;;;;;;12.00;6.05;;;;;;;;;;5028870;28;20061;-39
2023/03/10 00:46:55;;;;;;;11.65;6.35;;;;;;;;;;5031510;28;20041;-39
2023/03/10 00:49:20;;;;;;;11.35;6.45;;;;;;;;;;5034254;28;20044;-39
2023/03/10 00:51:45;;;;;;;14.77;5.72;;;;;;;;;;5032778;28;20037;-38
2023/03/10 00:54:11;;;;;;;10.70;5.30;;;;;;;;;;5032091;28;20025;-38
2023/03/10 00:56:36;;;;;;;8.70;5.53;;;;;;;;;;5030073;28;20503;-38
2023/03/10 00:59:12;;;;;;;12.13;5.22;;;;;;;;;;5032117;28;20944;-38
2023/03/10 01:01:40;;;;;;;11.27;6.03;;;;;;;;;;5032827;28;20103;-38
2023/03/10 01:04:20;;;;;;;14.13;5.82;;;;;;;;;;5033650;28;20734;-38
2023/03/10 01:06:46;;;;;;;9.70;4.60;;;;;;;;;;5036382;28;20029;-39
2023/03/10 01:09:12;;;;;;;10.13;5.78;;;;;;;;;;5030247;28;21525;-38
2023/03/10 01:11:38;;;;;;;14.35;5.65;;;;;;;;;;5026560;28;20076;-38
2023/03/10 01:14:06;;;;;;;8.07;5.35;;;;;;;;;;5032947;28;20496;-38
2023/03/10 01:16:34;;;;;;;10.13;5.40;;;;;;;;;;5031953;28;20108;-38
2023/03/10 01:18:59;;;;;;;10.27;5.80;;;;;;;;;;5032737;28;20049;-38
2023/03/10 01:21:28;;;;;;;12.88;5.85;;;;;;;;;;5030795;28;20423;-38
2023/03/10 01:23:57;;;;;;;10.32;5.85;;;;;;;;;;5031217;28;20103;-38
2023/03/10 01:26:22;;;;;;;11.15;5.90;;;;;;;;;;5030343;28;20520;-38
2023/03/10 01:28:51;;;;;;;14.10;6.80;;;;;;;;;;5027006;28;20030;-38
2023/03/10 01:31:17;;;;;;;10.25;5.70;;;;;;;;;;5029796;28;20037;-39
2023/03/10 01:33:44;;;;;;;17.30;6.68;;;;;;;;;;5031816;28;20052;-38
2023/03/10 01:36:15;;;;;;;12.68;6.70;;;;;;;;;;5033834;28;20383;-39
2023/03/10 01:38:42;;;;;;;20.20;10.07;;;;;;;;;;5030912;28;20025;-38
2023/03/10 01:41:11;;;;;;;16.50;9.30;;;;;;;;;;5033901;28;20063;-38
2023/03/10 01:43:45;;;;;;;19.58;7.40;;;;;;;;;;5030089;28;20029;-39
2023/03/10 01:46:47;;;;;;;13.80;8.27;;;;;;;;;;5029998;28;20075;-38
2023/03/10 01:49:24;;;;;;;12.40;6.70;;;;;;;;;;5028841;28;20076;-38
2023/03/10 01:51:58;;;;;;;12.23;7.47;;;;;;;;;;5031000;28;20469;-38
2023/03/10 01:54:38;;;;;;;17.27;8.35;;;;;;;;;;5036419;28;20046;-38
2023/03/10 01:57:05;;;;;;;11.20;6.47;;;;;;;;;;5027151;28;20103;-38
2023/03/10 01:59:36;;;;;;;11.20;6.40;;;;;;;;;;5036294;28;20033;-38
2023/03/10 02:02:03;;;;;;;15.10;6.18;;;;;;;;;;5033049;28;20048;-38
2023/03/10 02:04:49;;;;;;;11.82;5.68;;;;;;;;;;5026897;28;20040;-38
2023/03/10 02:07:28;;;;;;;10.93;5.32;;;;;;;;;;5026473;28;20045;-38
2023/03/10 02:09:55;;;;;;;7.60;5.47;;;;;;;;;;5031499;28;20764;-38
2023/03/10 02:12:26;;;;;;;16.50;5.75;;;;;;;;;;5031565;28;20029;-38
2023/03/10 02:14:52;;;;;;;14.68;6.28;;;;;;;;;;5030408;28;20029;-38
2023/03/10 02:17:20;;;;;;;9.27;5.68;;;;;;;;;;5031492;28;20048;-40
2023/03/10 02:19:45;;;;;;;14.23;5.63;;;;;;;;;;5026739;28;20371;-38
2023/03/10 02:22:16;;;;;;;10.40;5.90;;;;;;;;;;5034758;28;20037;-39
2023/03/10 02:24:51;;;;;;;12.25;6.22;;;;;;;;;;5035729;28;20030;-38
2023/03/10 02:27:31;;;;;;;14.50;6.72;;;;;;;;;;5038173;28;20095;-38
2023/03/10 02:29:59;;;;;;;9.55;5.55;;;;;;;;;;5035543;28;20141;-39
2023/03/10 02:32:27;;;;;;;9.75;5.82;;;;;;;;;;5036541;28;20536;-39
2023/03/10 02:34:52;;;;;;;9.60;5.55;;;;;;;;;;5034864;28;20033;-39
2023/03/10 02:37:30;;;;;;;14.68;5.80;;;;;;;;;;5040493;28;20105;-38
2023/03/10 02:39:56;;;;;;;9.77;5.43;;;;;;;;;;5035365;28;20021;-38
2023/03/10 02:42:29;;;;;;;12.13;6.43;;;;;;;;;;5035342;28;20421;-39
2023/03/10 02:44:55;;;;;;;13.60;5.43;;;;;;;;;;5032143;28;20037;-39
2023/03/10 02:47:29;;;;;;;12.82;5.80;;;;;;;;;;5034407;28;20042;-39
2023/03/10 02:50:01;;;;;;;13.38;6.80;;;;;;;;;;5035544;28;20042;-38
2023/03/10 02:53:05;;;;;;;14.02;8.07;;;;;;;;;;5033931;28;20064;-38
2023/03/10 02:55:31;;;;;;;16.52;7.43;;;;;;;;;;4994773;28;20042;-39
2023/03/10 02:57:56;;;;;;;12.85;7.30;;;;;;;;;;4993374;28;20041;-39
2023/03/10 03:00:22;;;;;;;23.25;9.93;;;;;;;;;;4992418;28;20109;-38
2023/03/10 03:02:47;;;;;;;24.85;9.13;;;;;;;;;;4990688;28;20463;-39
2023/03/10 03:05:12;;;;;;;18.35;8.43;;;;;;;;;;4996113;28;20537;-38
2023/03/10 03:07:44;;;;;;;26.70;8.55;;;;;;;;;;4989230;28;20073;-39
2023/03/10 03:10:10;;;;;;;18.08;8.00;;;;;;;;;;4987368;28;20027;-39
2023/03/10 03:12:35;;;;;;;18.35;7.55;;;;;;;;;;4993269;28;20491;-38
2023/03/10 03:15:01;;;;;;;27.23;9.38;;;;;;;;;;4993446;28;20057;-39
2023/03/10 03:17:27;;;;;;;19.75;8.32;;;;;;;;;;4996535;28;20494;-39
2023/03/10 03:19:52;;;;;;;15.93;8.45;;;;;;;;;;4989543;28;20042;-39
2023/03/10 03:22:18;;;;;;;15.70;7.55;;;;;;;;;;4992478;28;20145;-38
2023/03/10 03:24:43;;;;;;;12.07;7.40;;;;;;;;;;4995099;28;20105;-38
2023/03/10 03:27:09;;;;;;;13.73;7.47;;;;;;;;;;4993548;28;20054;-39
2023/03/10 03:29:40;;;;;;;9.70;7.30;;;;;;;;;;4994196;28;20034;-39
2023/03/10 03:32:05;;;;;;;10.23;6.40;;;;;;;;;;5013728;28;20045;-39
2023/03/10 03:34:31;;;;;;;15.90;7.10;;;;;;;;;;5032400;28;20033;-39
2023/03/10 03:37:05;;;;;;;13.30;7.13;;;;;;;;;;5033030;28;20046;-39
2023/03/10 03:39:30;;;;;;;11.57;6.90;;;;;;;;;;5031318;28;20083;-39
2023/03/10 03:41:56;;;;;;;11.40;6.40;;;;;;;;;;5030760;28;20049;-39
2023/03/10 03:44:21;;;;;;;11.45;6.40;;;;;;;;;;5033303;28;20035;-38
2023/03/10 03:46:47;;;;;;;8.15;6.20;;;;;;;;;;5036847;28;20037;-39
2023/03/10 03:49:18;;;;;;;13.23;6.97;;;;;;;;;;5031658;28;20013;-39
2023/03/10 03:51:44;;;;;;;10.48;6.35;;;;;;;;;;5033546;28;20091;-39
2023/03/10 03:54:09;;;;;;;12.00;5.57;;;;;;;;;;5032875;28;20037;-39
2023/03/10 03:56:35;;;;;;;11.68;5.95;;;;;;;;;;5031516;28;20567;-39
2023/03/10 03:59:00;;;;;;;9.15;6.05;;;;;;;;;;5031288;28;20112;-39
2023/03/10 04:01:26;;;;;;;9.55;5.57;;;;;;;;;;5030093;28;20068;-39
2023/03/10 04:03:51;;;;;;;9.00;5.68;;;;;;;;;;5036962;28;20044;-39
2023/03/10 04:06:26;;;;;;;7.00;4.80;;;;;;;;;;5036448;28;20398;-39
2023/03/10 04:08:51;;;;;;;13.20;6.50;;;;;;;;;;5034549;28;20075;-39
2023/03/10 04:11:17;;;;;;;9.18;5.88;;;;;;;;;;5035775;28;20049;-39
2023/03/10 04:13:42;;;;;;;16.45;5.40;;;;;;;;;;5033784;28;20028;-39
2023/03/10 04:16:08;;;;;;;8.02;5.13;;;;;;;;;;5038017;28;20057;-40
2023/03/10 04:18:34;;;;;;;11.75;4.95;;;;;;;;;;5029973;28;20021;-39
2023/03/10 04:21:02;;;;;;;13.40;4.80;;;;;;;;;;5035026;28;20041;-39
2023/03/10 04:23:28;;;;;;;6.97;4.72;;;;;;;;;;5035818;28;20032;-39
2023/03/10 04:25:56;;;;;;;8.82;5.00;;;;;;;;;;5027269;28;20433;-39
2023/03/10 04:28:21;;;;;;;9.63;4.70;;;;;;;;;;5031270;28;20137;-39
2023/03/10 04:30:47;;;;;;;8.50;4.63;;;;;;;;;;5029725;28;20110;-38
2023/03/10 04:33:12;;;;;;;10.30;4.70;;;;;;;;;;5035228;28;20041;-38
2023/03/10 04:35:42;;;;;;;12.25;4.72;;;;;;;;;;5035679;28;20031;-39
2023/03/10 04:38:08;;;;;;;11.50;5.50;;;;;;;;;;5034519;28;20033;-38
2023/03/10 04:40:34;;;;;;;10.07;4.95;;;;;;;;;;5028807;28;20086;-39
2023/03/10 04:43:00;;;;;;;11.02;4.53;;;;;;;;;;5030997;28;20037;-38
2023/03/10 04:45:25;;;;;;;6.32;4.40;;;;;;;;;;5031682;28;20043;-39
2023/03/10 04:47:57;;;;;;;9.23;4.53;;;;;;;;;;5039536;28;20049;-39
2023/03/10 04:50:29;;;;;;;6.07;4.40;;;;;;;;;;5031029;28;20037;-39
2023/03/10 04:52:54;;;;;;;10.52;4.63;;;;;;;;;;5032410;28;20564;-39
2023/03/10 04:55:20;;;;;;;7.70;4.10;;;;;;;;;;5032782;28;20037;-38
2023/03/10 04:57:45;;;;;;;6.63;4.80;;;;;;;;;;5029328;28;20060;-39
2023/03/10 05:00:11;;;;;;;6.55;4.25;;;;;;;;;;5031835;28;20018;-40
2023/03/10 05:02:50;;;;;;;6.82;4.25;;;;;;;;;;5031721;28;20029;-39
2023/03/10 05:05:16;;;;;;;11.10;4.43;;;;;;;;;;5030619;28;20486;-39
2023/03/10 05:07:41;;;;;;;12.23;5.00;;;;;;;;;;5028033;28;20050;-39
2023/03/10 05:10:07;;;;;;;10.10;4.00;;;;;;;;;;5031682;28;20079;-39
2023/03/10 05:12:33;;;;;;;10.10;4.30;;;;;;;;;;5028698;28;20051;-40
2023/03/10 05:15:08;;;;;;;6.22;3.65;;;;;;;;;;5032691;28;20021;-38
2023/03/10 05:17:33;;;;;;;8.05;3.22;;;;;;;;;;5035148;28;20068;-39
2023/03/10 05:19:59;;;;;;;9.25;3.47;;;;;;;;;;5030979;28;20060;-38
2023/03/10 05:22:24;;;;;;;12.52;4.55;;;;;;;;;;5033366;28;20583;-39
2023/03/10 05:24:50;;;;;;;10.57;4.40;;;;;;;;;;5034329;28;20021;-39
2023/03/10 05:27:21;;;;;;;10.27;5.35;;;;;;;;;;5032006;28;20080;-39
2023/03/10 05:29:47;;;;;;;10.10;4.38;;;;;;;;;;5034346;28;20071;-38
2023/03/10 05:32:12;;;;;;;10.68;4.50;;;;;;;;;;5023004;28;20436;-39
2023/03/10 05:34:43;;;;;;;12.18;4.63;;;;;;;;;;5026348;28;20025;-39
2023/03/10 05:37:09;;;;;;;12.15;5.38;;;;;;;;;;5023947;28;20048;-38
2023/03/10 05:39:37;;;;;;;15.18;4.82;;;;;;;;;;5047803;28;20040;-38
2023/03/10 05:42:03;;;;;;;9.85;4.75;;;;;;;;;;5026320;28;20037;-39
2023/03/10 05:44:28;;;;;;;13.40;5.10;;;;;;;;;;5036256;28;20418;-39
2023/03/10 05:47:00;;;;;;;19.13;4.63;;;;;;;;;;5033424;28;20042;-39
2023/03/10 05:49:25;;;;;;;21.52;5.60;;;;;;;;;;5027213;28;20029;-38
2023/03/10 05:51:57;;;;;;;14.98;3.95;;;;;;;;;;5029425;28;20525;-39
2023/03/10 05:54:23;;;;;;;22.10;3.53;;;;;;;;;;5034672;28;20363;-38
2023/03/10 05:56:49;;;;;;;17.10;3.38;;;;;;;;;;5031109;28;20099;-38
2023/03/10 05:59:17;;;;;;;11.93;2.63;;;;;;;;;;5033076;28;20033;-39
2023/03/10 06:01:42;;;;;;;13.13;3.00;;;;;;;;;;5034007;28;20123;-40
2023/03/10 06:04:14;;;;;;;22.13;3.78;;;;;;;;;;5027580;28;20386;-39
2023/03/10 06:06:39;;;;;;;14.88;3.00;;;;;;;;;;5033311;28;20045;-39
2023/03/10 06:09:06;;;;;;;14.15;3.10;;;;;;;;;;5028930;28;20025;-39
2023/03/10 06:11:34;;;;;;;17.02;3.20;;;;;;;;;;5033810;28;20037;-39
2023/03/10 06:13:59;;;;;;;11.20;2.20;;;;;;;;;;5025260;28;20101;-38
2023/03/10 06:16:31;;;;;;;8.93;2.58;;;;;;;;;;5034563;28;20140;-39
2023/03/10 06:18:57;;;;;;;8.48;2.03;;;;;;;;;;5035722;28;20029;-39
2023/03/10 06:21:22;;;;;;;12.13;3.42;;;;;;;;;;5030970;28;20515;-40
2023/03/10 06:23:48;;;;;;;12.60;2.65;;;;;;;;;;5035201;28;20029;-38
2023/03/10 06:26:15;;;;;;;16.17;3.20;;;;;;;;;;5033073;28;20032;-39
2023/03/10 06:28:43;;;;;;;13.45;2.95;;;;;;;;;;5036962;28;20033;-39
2023/03/10 06:31:17;;;;;;;14.27;2.88;;;;;;;;;;5038498;28;20029;-38
2023/03/10 06:33:43;;;;;;;13.00;3.40;;;;;;;;;;5048974;28;20030;-39
2023/03/10 06:36:13;;;;;;;12.25;2.78;;;;;;;;;;5032681;28;20497;-39
2023/03/10 06:38:39;;;;;;;9.30;2.88;;;;;;;;;;5028784;28;20490;-38
2023/03/10 06:41:07;;;;;;;15.07;3.15;;;;;;;;;;5026760;28;20074;-40
2023/03/10 06:43:34;;;;;;;12.50;3.08;;;;;;;;;;5031084;28;20022;-39
2023/03/10 06:46:03;;;;;;;9.25;2.25;;;;;;;;;;5020548;28;20039;-38
2023/03/10 06:48:28;;;;;;;8.95;2.40;;;;;;;;;;5028635;28;20537;-38
2023/03/10 06:50:54;;;;;;;13.95;2.72;;;;;;;;;;5035693;28;20082;-39
2023/03/10 06:53:22;;;;;;;10.35;2.92;;;;;;;;;;5038907;28;20045;-40
2023/03/10 06:55:59;;;;;;;11.55;2.63;;;;;;;;;;5032411;28;20623;-39
2023/03/10 06:58:24;;;;;;;13.02;3.20;;;;;;;;;;5030582;28;20041;-39
2023/03/10 07:00:50;;;;;;;14.45;2.65;;;;;;;;;;5036183;28;20036;-39
2023/03/10 07:03:25;;;;;;;10.95;2.85;;;;;;;;;;5021753;28;20173;-38
2023/03/10 07:05:52;;;;;;;9.82;2.58;;;;;;;;;;5028531;28;20136;-38
2023/03/10 07:08:26;;;;;;;12.93;2.22;;;;;;;;;;5026951;28;20064;-38
2023/03/10 07:10:52;;;;;;;10.52;2.45;;;;;;;;;;5015247;28;20028;-41
2023/03/10 07:13:23;;;;;;;14.95;4.30;;;;;;;;;;5020715;28;20072;-39
2023/03/10 07:15:55;;;;;;;13.80;2.17;;;;;;;;;;5020443;28;20103;-38
2023/03/10 07:18:29;;;;;;;13.30;2.28;;;;;;;;;;5025484;28;20038;-39
2023/03/10 07:21:10;;;;;;;7.53;2.10;;;;;;;;;;5032423;28;20037;-37
2023/03/10 07:23:36;;;;;;;10.00;2.20;;;;;;;;;;5038859;28;20060;-38
2023/03/10 07:26:12;;;;;;;8.10;2.45;;;;;;;;;;5031786;28;20029;-38
2023/03/10 07:28:46;;;;;;;12.73;2.25;;;;;;;;;;5027571;28;20057;-38
2023/03/10 07:31:16;;;;;;;11.40;2.63;;;;;;;;;;5039972;28;20029;-38
2023/03/10 07:33:41;;;;;;;10.13;2.58;;;;;;;;;;5037592;28;20025;-38
2023/03/10 07:36:10;;;;;;;10.63;2.90;;;;;;;;;;5035275;28;20041;-38
2023/03/10 07:38:35;;;;;;;11.38;2.17;;;;;;;;;;5035581;28;20025;-38
2023/03/10 07:41:05;;;;;;;12.88;2.65;;;;;;;;;;5035501;28;20028;-38
2023/03/10 07:43:34;;;;;;;17.70;2.30;;;;;;;;;;5035130;28;20039;-38
2023/03/10 07:46:04;;;;;;;9.82;1.88;;;;;;;;;;5031792;28;20481;-39
2023/03/10 07:48:35;;;;;;;9.98;2.13;;;;;;;;;;5035983;28;20030;-39
2023/03/10 07:51:01;;;;;;;10.52;2.00;;;;;;;;;;5030303;28;20025;-39
2023/03/10 07:53:39;;;;;;;10.82;2.80;;;;;;;;;;5036111;28;20033;-38
2023/03/10 07:56:07;;;;;;;11.93;2.30;;;;;;;;;;5033119;28;20059;-38
2023/03/10 07:58:39;;;;;;;9.88;2.10;;;;;;;;;;5037208;28;20037;-38
2023/03/10 08:01:16;;;;;;;8.13;2.22;;;;;;;;;;5033228;28;20025;-38
2023/03/10 08:03:42;;;;;;;9.95;1.83;;;;;;;;;;5026593;28;20649;-38
2023/03/10 08:06:07;;;;;;;11.70;2.30;;;;;;;;;;5028069;28;20024;-38
2023/03/10 08:08:42;;;;;;;8.95;2.38;;;;;;;;;;5035873;28;20025;-38
2023/03/10 08:11:10;;;;;;;4.63;2.05;;;;;;;;;;5035891;28;20392;-39
2023/03/10 08:13:38;;;;;;;7.70;1.67;;;;;;;;;;5032709;28;20025;-39
2023/03/10 08:16:04;;;;;;;4.57;1.63;;;;;;;;;;5036609;28;20049;-38
2023/03/10 08:18:30;;;;;;;10.20;2.55;;;;;;;;;;5029831;28;20034;-38
2023/03/10 08:20:56;;;;;;;5.63;1.58;;;;;;;;;;5030174;28;20031;-39
2023/03/10 08:23:31;;;;;;;5.85;1.75;;;;;;;;;;5038319;28;20069;-38
2023/03/10 08:26:00;;;;;;;8.05;1.92;;;;;;;;;;5029532;28;20080;-38
2023/03/10 08:28:27;;;;;;;4.85;2.08;;;;;;;;;;5032650;28;20038;-39
2023/03/10 08:30:53;;;;;;;6.03;2.08;;;;;;;;;;5034288;28;20100;-38
2023/03/10 08:33:20;;;;;;;11.45;2.17;;;;;;;;;;5036685;28;20523;-38
2023/03/10 08:35:48;;;;;;;9.35;1.85;;;;;;;;;;5032634;28;20052;-38
2023/03/10 08:38:13;;;;;;;3.97;1.27;;;;;;;;;;5034355;28;20107;-38
2023/03/10 08:40:39;;;;;;;10.18;2.70;;;;;;;;;;5029807;28;20630;-38
2023/03/10 08:43:05;;;;;;;9.55;1.88;;;;;;;;;;5035847;28;20030;-39
2023/03/10 08:45:31;;;;;;;7.00;1.75;;;;;;;;;;5033276;28;20029;-38
2023/03/10 08:48:02;;;;;;;6.30;2.05;;;;;;;;;;5036002;28;20130;-39
2023/03/10 08:50:28;;;;;;;6.80;1.70;;;;;;;;;;5035430;28;20437;-38
2023/03/10 08:52:53;;;;;;;8.23;2.40;;;;;;;;;;5033616;28;20041;-39
2023/03/10 08:55:18;;;;;;;7.28;2.10;;;;;;;;;;5030474;28;20036;-38
2023/03/10 08:57:44;;;;;;;9.48;2.08;;;;;;;;;;5034203;28;20367;-38
2023/03/10 09:00:16;;;;;;;7.13;1.65;;;;;;;;;;5030915;28;20036;-39
2023/03/10 09:02:41;;;;;;;9.82;2.92;;;;;;;;;;5028612;28;20072;-39
2023/03/10 09:05:09;;;;;;;7.40;1.65;;;;;;;;;;5034861;28;20421;-39
2023/03/10 09:07:34;;;;;;;8.07;2.15;;;;;;;;;;5031919;28;20079;-39
2023/03/10 09:10:00;;;;;;;5.85;1.73;;;;;;;;;;5037658;28;20053;-41
2023/03/10 09:12:34;;;;;;;8.93;3.67;;;;;;;;;;5029569;28;20703;-38
2023/03/10 09:15:00;;;;;;;8.25;1.58;;;;;;;;;;5038707;28;20025;-39
2023/03/10 09:17:26;;;;;;;8.52;2.38;;;;;;;;;;5032712;28;20049;-38
2023/03/10 09:19:51;;;;;;;8.73;2.17;;;;;;;;;;5031404;28;20036;-38
2023/03/10 09:22:16;;;;;;;9.20;2.42;;;;;;;;;;5036112;28;20482;-39
2023/03/10 09:24:42;;;;;;;6.97;2.10;;;;;;;;;;5037117;28;20029;-39
2023/03/10 09:27:07;;;;;;;8.63;2.20;;;;;;;;;;5025912;28;20045;-38
2023/03/10 09:29:34;;;;;;;8.25;2.10;;;;;;;;;;5034107;28;20017;-41
2023/03/10 09:32:06;;;;;;;9.00;2.28;;;;;;;;;;5033425;28;20037;-38
2023/03/10 09:34:31;;;;;;;8.82;1.90;;;;;;;;;;5030019;28;20029;-38
2023/03/10 09:36:57;;;;;;;5.30;1.98;;;;;;;;;;5033633;28;20047;-38
2023/03/10 09:39:22;;;;;;;11.30;2.15;;;;;;;;;;5033667;28;20039;-39
2023/03/10 09:42:18;;;;;;;6.22;1.58;;;;;;;;;;5025486;28;20057;-39
2023/03/10 09:44:59;;;;;;;5.85;2.05;;;;;;;;;;5028695;28;20080;-39
2023/03/10 09:47:37;;;;;;;4.63;1.70;;;;;;;;;;5033836;28;20037;-39
2023/03/10 09:50:26;;;;;;;8.40;1.70;;;;;;;;;;5033648;28;20021;-39
2023/03/10 09:52:54;;;;;;;5.95;1.70;;;;;;;;;;5030726;28;21004;-38
2023/03/10 09:55:43;;;;;;;6.93;1.80;;;;;;;;;;5031813;28;20056;-39
2023/03/10 09:58:32;;;;;;;5.70;1.63;;;;;;;;;;5035708;28;20033;-39
2023/03/10 10:00:59;;;;;;;3.80;1.40;;;;;;;;;;5036144;28;20030;-38
2023/03/10 10:03:41;;;;;;;7.88;2.15;;;;;;;;;;5031448;28;20025;-39
2023/03/10 10:06:07;;;;;;;4.60;1.50;;;;;;;;;;5034855;28;20025;-39
2023/03/10 10:08:42;;;;;;;8.63;2.08;;;;;;;;;;5030033;28;20388;-39
2023/03/10 10:11:16;;;;;;;6.30;1.77;;;;;;;;;;5035008;28;20417;-39
2023/03/10 10:13:41;;;;;;;4.75;2.10;;;;;;;;;;5027038;28;20061;-38
2023/03/10 10:16:19;;;;;;;4.97;1.60;;;;;;;;;;5030681;28;20096;-38
2023/03/10 10:18:56;;;;;;;9.35;1.63;;;;;;;;;;5026608;28;20029;-39
2023/03/10 10:21:33;;;;;;;5.80;1.42;;;;;;;;;;5023172;28;20037;-39
2023/03/10 10:23:59;;;;;;;6.43;1.95;;;;;;;;;;5023132;28;20025;-39
2023/03/10 10:26:30;;;;;;;3.13;1.60;;;;;;;;;;5023992;28;20079;-39
2023/03/10 10:28:58;;;;;;;10.50;1.85;;;;;;;;;;5018663;28;20024;-39
2023/03/10 10:31:30;;;;;;;6.93;1.40;;;;;;;;;;5018088;28;20072;-39
2023/03/10 10:33:57;;;;;;;12.57;2.58;;;;;;;;;;5019317;28;20033;-39
2023/03/10 10:36:41;;;;;;;4.18;1.60;;;;;;;;;;5030885;28;20061;-39
2023/03/10 10:39:25;;;;;;;4.05;1.25;;;;;;;;;;5027774;28;20026;-39
2023/03/10 10:41:51;;;;;;;5.35;1.92;;;;;;;;;;5032685;28;20041;-39
2023/03/10 10:44:18;;;;;;;2.50;1.50;;;;;;;;;;5035738;28;20036;-38
2023/03/10 10:46:53;;;;;;;2.63;1.00;;;;;;;;;;5032087;28;20038;-39
2023/03/10 10:49:23;;;;;;;2.95;1.27;;;;;;;;;;5039687;28;20541;-39
2023/03/10 10:52:03;;;;;;;9.07;1.42;;;;;;;;;;5032921;28;20071;-39
2023/03/10 10:54:40;;;;;;;4.00;1.10;;;;;;;;;;5035721;28;20021;-39
2023/03/10 10:57:17;;;;;;;4.28;1.27;;;;;;;;;;5028471;28;20041;-39
2023/03/10 10:59:43;;;;;;;5.05;1.23;;;;;;;;;;5036263;28;20060;-41
2023/03/10 11:02:31;;;;;;;5.95;2.08;;;;;;;;;;5034316;28;20061;-39
2023/03/10 11:05:17;;;;;;;5.45;1.90;;;;;;;;;;5036212;28;20567;-39
2023/03/10 11:07:43;;;;;;;2.80;1.40;;;;;;;;;;5034422;28;20038;-39
2023/03/10 11:10:31;;;;;;;8.05;1.92;;;;;;;;;;5039857;28;20385;-39
2023/03/10 11:13:28;;;;;;;4.65;1.60;;;;;;;;;;5032958;28;20060;-39
2023/03/10 11:15:57;;;;;;;5.38;1.60;;;;;;;;;;5037238;28;20030;-39
2023/03/10 11:18:39;;;;;;;12.88;5.65;;;;;;;;;;5028563;28;20053;-40
2023/03/10 11:21:15;;;;;;;7.00;1.80;;;;;;;;;;5032685;28;20121;-39
2023/03/10 11:23:56;;;;;;;7.93;2.03;;;;;;;;;;5022290;28;20048;-39
2023/03/10 11:27:08;;;;;;;9.10;2.67;;;;;;;;;;5034208;28;20041;-39
2023/03/10 11:29:46;;;;;;;4.53;1.70;;;;;;;;;;5016485;28;20041;-39
2023/03/10 11:32:20;;;;;;;5.57;1.83;;;;;;;;;;5011701;28;20049;-40
2023/03/10 11:34:49;;;;;;;4.78;1.80;;;;;;;;;;5016795;28;20098;-41
2023/03/10 11:37:32;;;;;;;9.48;1.77;;;;;;;;;;5015210;28;20454;-39
2023/03/10 11:40:18;;;;;;;4.57;1.65;;;;;;;;;;5014021;28;20030;-39
2023/03/10 11:43:11;;;;;;;7.18;1.95;;;;;;;;;;5012113;28;20046;-39
2023/03/10 11:45:37;;;;;;;3.97;1.42;;;;;;;;;;5002942;28;20025;-42
2023/03/10 11:48:32;;;;;;;4.15;1.52;;;;;;;;;;5012265;28;20658;-39
2023/03/10 11:51:02;;;;;;;6.15;2.00;;;;;;;;;;5010021;28;20033;-38
2023/03/10 11:53:54;;;;;;;5.63;1.70;;;;;;;;;;5016323;28;20041;-39
2023/03/10 11:56:29;;;;;;;4.90;1.63;;;;;;;;;;5010227;28;20533;-39
2023/03/10 11:59:05;;;;;;;5.22;1.60;;;;;;;;;;5014513;28;20038;-42
2023/03/10 12:01:42;;;;;;;4.93;1.60;;;;;;;;;;5011269;28;22216;-39
2023/03/10 12:04:45;;;;;;;4.45;1.83;;;;;;;;;;5014568;28;20026;-39
2023/03/10 12:07:36;;;;;;;6.35;1.83;;;;;;;;;;5035946;28;20041;-39
2023/03/10 12:10:24;;;;;;;4.22;1.63;;;;;;;;;;5034966;28;20114;-39
2023/03/10 12:12:55;;;;;;;4.53;1.67;;;;;;;;;;5032203;28;20787;-39
2023/03/10 12:15:32;;;;;;;3.17;1.40;;;;;;;;;;5034186;28;20555;-39
2023/03/10 12:17:58;;;;;;;3.38;1.55;;;;;;;;;;5027773;28;20446;-39
2023/03/10 12:20:30;;;;;;;10.40;1.60;;;;;;;;;;5034447;28;20033;-39
2023/03/10 12:23:23;;;;;;;4.43;1.80;;;;;;;;;;5033032;28;20091;-38
2023/03/10 12:25:49;;;;;;;4.90;1.77;;;;;;;;;;5028232;28;20583;-39
2023/03/10 12:28:23;;;;;;;4.65;1.88;;;;;;;;;;5031129;28;20049;-39
2023/03/10 12:31:14;;;;;;;3.72;1.48;;;;;;;;;;5020670;28;20040;-38
2023/03/10 12:33:42;;;;;;;7.25;1.52;;;;;;;;;;5034726;28;20128;-38
2023/03/10 12:36:08;;;;;;;3.92;1.35;;;;;;;;;;5031677;28;20385;-38
2023/03/10 12:38:45;;;;;;;4.47;1.85;;;;;;;;;;5032032;28;20024;-38
2023/03/10 12:41:29;;;;;;;11.50;1.35;;;;;;;;;;5033018;28;20420;-39
2023/03/10 12:44:20;;;;;;;2.90;1.25;;;;;;;;;;5034088;28;20108;-38
2023/03/10 12:46:56;;;;;;;5.85;1.60;;;;;;;;;;5029336;28;20464;-38
2023/03/10 12:49:43;;;;;;;14.35;1.38;;;;;;;;;;5035661;28;20030;-38
2023/03/10 12:52:12;;;;;;;4.65;1.85;;;;;;;;;;5029767;28;21379;-38
2023/03/10 12:54:50;;;;;;;6.25;1.55;;;;;;;;;;5030367;28;20036;-38
2023/03/10 12:57:23;;;;;;;3.70;1.50;;;;;;;;;;5030035;28;20044;-39
2023/03/10 12:59:49;;;;;;;4.50;1.50;;;;;;;;;;5038628;28;20434;-39
2023/03/10 13:02:34;;;;;;;3.78;1.58;;;;;;;;;;5017308;28;20038;-39
2023/03/10 13:05:23;;;;;;;10.88;1.90;;;;;;;;;;5020106;28;20041;-38
2023/03/10 13:07:53;;;;;;;4.65;1.63;;;;;;;;;;5027645;28;20037;-44
2023/03/10 13:10:22;;;;;;;2.88;1.50;;;;;;;;;;5027984;28;20025;-39
2023/03/10 13:12:55;;;;;;;5.80;1.80;;;;;;;;;;5027708;28;20041;-38
2023/03/10 13:15:24;;;;;;;6.38;1.48;;;;;;;;;;5032739;28;20036;-38
2023/03/10 13:17:50;;;;;;;4.93;1.67;;;;;;;;;;5034758;28;20053;-38
2023/03/10 13:20:25;;;;;;;4.75;1.77;;;;;;;;;;5019614;28;20544;-40
2023/03/10 13:22:55;;;;;;;9.85;1.70;;;;;;;;;;5029930;28;20087;-40
2023/03/10 13:25:21;;;;;;;6.20;1.80;;;;;;;;;;5030311;28;20034;-40
2023/03/10 13:27:47;;;;;;;4.45;1.77;;;;;;;;;;5032790;28;20059;-38
2023/03/10 13:30:14;;;;;;;10.63;2.13;;;;;;;;;;5034321;28;20037;-39
2023/03/10 13:32:57;;;;;;;4.60;1.92;;;;;;;;;;5030687;28;20087;-38
2023/03/10 13:35:37;;;;;;;6.00;2.20;;;;;;;;;;5032386;28;20444;-38
2023/03/10 13:38:04;;;;;;;8.32;2.05;;;;;;;;;;5030912;28;20048;-38
2023/03/10 13:40:30;;;;;;;6.53;2.00;;;;;;;;;;5024589;28;20100;-39
2023/03/10 13:43:03;;;;;;;5.50;1.85;;;;;;;;;;5035581;28;20049;-39
2023/03/10 13:45:32;;;;;;;6.03;1.90;;;;;;;;;;5032575;28;20033;-39
2023/03/10 13:48:12;;;;;;;7.50;2.00;;;;;;;;;;5033015;28;20041;-39
2023/03/10 13:50:37;;;;;;;6.05;2.08;;;;;;;;;;5025329;28;20021;-39
2023/03/10 13:53:03;;;;;;;9.95;2.13;;;;;;;;;;5033996;28;20049;-39
2023/03/10 13:55:39;;;;;;;7.43;1.98;;;;;;;;;;5033515;28;20048;-39
2023/03/10 13:58:05;;;;;;;5.90;2.17;;;;;;;;;;5024993;28;20104;-39
2023/03/10 14:00:31;;;;;;;8.23;2.63;;;;;;;;;;5029439;28;20045;-39
2023/03/10 14:02:57;;;;;;;11.00;2.67;;;;;;;;;;5031399;28;20044;-40
2023/03/10 14:05:44;;;;;;;7.93;2.55;;;;;;;;;;5033487;28;20033;-39
2023/03/10 14:08:31;;;;;;;7.50;2.55;;;;;;;;;;5028354;28;20157;-39
2023/03/10 14:11:37;;;;;;;7.95;2.45;;;;;;;;;;5034097;28;20038;-39
2023/03/10 14:14:06;;;;;;;5.75;2.35;;;;;;;;;;5029559;28;20029;-42
2023/03/10 14:16:50;;;;;;;9.13;2.22;;;;;;;;;;5029210;28;20355;-42
2023/03/10 14:19:40;;;;;;;7.97;2.33;;;;;;;;;;5028514;28;20053;-41
2023/03/10 14:22:36;;;;;;;7.22;2.00;;;;;;;;;;5037469;28;20076;-39
2023/03/10 14:25:10;;;;;;;6.78;2.65;;;;;;;;;;5029929;28;20518;-39
2023/03/10 14:27:38;;;;;;;8.32;2.63;;;;;;;;;;5035090;28;20041;-39
2023/03/10 14:30:17;;;;;;;7.95;2.03;;;;;;;;;;5035407;28;20091;-40
2023/03/10 14:32:42;;;;;;;5.97;2.22;;;;;;;;;;5033570;28;20053;-39
2023/03/10 14:35:12;;;;;;;7.43;2.10;;;;;;;;;;5036929;28;20098;-39
2023/03/10 14:37:38;;;;;;;8.60;2.08;;;;;;;;;;5035636;28;20110;-40
2023/03/10 14:40:07;;;;;;;8.98;2.47;;;;;;;;;;5032637;28;20481;-39
2023/03/10 14:42:36;;;;;;;13.35;2.20;;;;;;;;;;5030891;28;20462;-40
2023/03/10 14:45:26;;;;;;;7.75;2.42;;;;;;;;;;5024791;28;20082;-39
2023/03/10 14:47:53;;;;;;;6.75;1.95;;;;;;;;;;5034425;28;20060;-40
2023/03/10 14:50:20;;;;;;;7.72;2.22;;;;;;;;;;5030860;28;20038;-39
2023/03/10 14:52:48;;;;;;;11.40;1.90;;;;;;;;;;5034010;28;20037;-39
2023/03/10 14:55:13;;;;;;;7.40;2.50;;;;;;;;;;5037056;28;20511;-39
2023/03/10 14:57:46;;;;;;;8.43;3.20;;;;;;;;;;5039359;28;20136;-40